Time;durP1;ratioP1;P1;durP2;ratioP2;P2;SDS_P1;SDS_P2;PMS_P1;PMS_P2;Temp;Humidity;BMP_temperature;BMP_pressure;BME280_temperature;BME280_humidity;BME280_pressure;Samples;Min_cycle;Max_cycle;Signal;HPM_P1;HPM_P2
2023/01/13 00:01:57;;;;;;;5.75;2.00;;;;;;;9.26;100.00;67797.81;6215626;23;20012;-85
2023/01/13 00:04:22;;;;;;;6.38;1.55;;;;;;;;;;6242379;23;20022;-85
2023/01/13 00:06:47;;;;;;;4.40;1.67;;;;;;;9.21;100.00;67792.16;6242150;23;20016;-84
2023/01/13 00:09:13;;;;;;;9.75;1.98;;;;;;;9.20;100.00;67791.00;6241798;23;20259;-84
2023/01/13 00:11:38;;;;;;;8.25;1.92;;;;;;;9.19;100.00;67786.66;6216077;23;20012;-85
2023/01/13 00:14:03;;;;;;;4.65;2.20;;;;;;;9.18;100.00;67788.19;6242724;23;20012;-85
2023/01/13 00:16:29;;;;;;;4.40;1.10;;;;;;;9.14;100.00;67778.34;6242393;23;20024;-85
2023/01/13 00:18:54;;;;;;;7.90;2.25;;;;;;;9.12;100.00;67781.38;6242746;23;20110;-85
2023/01/13 00:21:22;;;;;;;4.70;2.03;;;;;;;9.11;100.00;67778.16;6242102;23;20042;-85
2023/01/13 00:23:48;;;;;;;9.70;2.33;;;;;;;9.11;100.00;67780.81;6243144;23;20020;-85
2023/01/13 00:26:20;;;;;;;8.18;2.00;;;;;;;9.14;100.00;67783.66;6242923;23;20035;-84
2023/01/13 00:28:46;;;;;;;7.50;2.58;;;;;;;9.14;100.00;67783.66;6242987;23;20013;-84
2023/01/13 00:31:13;;;;;;;5.63;1.95;;;;;;;9.11;100.00;67780.81;6241965;23;20027;-85
2023/01/13 00:33:39;;;;;;;4.70;1.90;;;;;;;9.13;100.00;67788.41;6242045;23;20024;-85
2023/01/13 00:36:06;;;;;;;6.78;2.42;;;;;;;9.11;100.00;67778.16;6242917;23;20031;-85
2023/01/13 00:38:34;;;;;;;8.43;2.85;;;;;;;9.07;100.00;67776.28;6215098;23;20553;-85
2023/01/13 00:41:03;;;;;;;7.78;3.22;;;;;;;9.06;100.00;67774.56;6241674;23;20449;-85
2023/01/13 00:43:31;;;;;;;9.10;2.10;;;;;;;9.01;100.00;67764.75;6213421;23;20023;-85
2023/01/13 00:45:57;;;;;;;9.07;3.30;;;;;;;8.97;100.00;67765.50;6239532;23;20016;-85
2023/01/13 00:48:23;;;;;;;13.13;3.20;;;;;;;8.93;100.00;67760.41;6212887;23;20564;-85
2023/01/13 00:50:57;;;;;;;7.43;2.17;;;;;;;8.91;100.00;67758.16;6240784;23;20012;-85
2023/01/13 00:53:23;;;;;;;7.15;2.10;;;;;;;8.93;100.00;67755.13;6239830;23;20599;-85
2023/01/13 00:55:49;;;;;;;10.48;2.08;;;;;;;;;;6240184;23;20012;-85
2023/01/13 00:58:14;;;;;;;9.18;1.85;;;;;;;8.92;100.00;67764.59;6240142;23;20020;-85
2023/01/13 01:00:40;;;;;;;7.07;1.83;;;;;;;8.87;100.00;67758.94;6242194;23;20473;-85
2023/01/13 01:03:07;;;;;;;7.70;2.20;;;;;;;;;;6240599;23;20024;-84
2023/01/13 01:05:33;;;;;;;8.98;2.78;;;;;;;8.82;100.00;67748.53;6240019;23;20024;-85
2023/01/13 01:07:58;;;;;;;10.05;2.40;;;;;;;8.76;100.00;67742.28;6243051;23;20019;-84
2023/01/13 01:10:24;;;;;;;11.70;2.63;;;;;;;8.73;100.00;67738.88;6243947;23;20088;-84
2023/01/13 01:12:49;;;;;;;11.15;2.72;;;;;;;8.71;100.00;67736.63;6244061;23;20405;-85
2023/01/13 01:15:15;;;;;;;11.70;2.60;;;;;;;8.67;100.00;67731.53;6244425;23;20016;-85
2023/01/13 01:17:41;;;;;;;7.85;2.25;;;;;;;;;;6225717;23;20019;-84
2023/01/13 01:20:06;;;;;;;9.02;2.67;;;;;;;;;;6257824;23;20019;-84
2023/01/13 01:22:32;;;;;;;7.03;2.00;;;;;;;8.45;100.00;67715.69;6254812;23;21434;-84
2023/01/13 01:24:57;;;;;;;10.25;2.55;;;;;;;;;;6227352;23;20068;-84
2023/01/13 01:27:23;;;;;;;10.82;2.72;;;;;;;8.36;100.00;67698.09;6243641;23;20027;-83
2023/01/13 01:29:48;;;;;;;10.20;2.42;;;;;;;8.34;100.00;67695.25;6239363;23;20354;-82
2023/01/13 01:32:13;;;;;;;11.20;2.47;;;;;;;;;;6239542;23;20095;-83
2023/01/13 01:34:39;;;;;;;13.98;3.42;;;;;;;8.26;100.00;67686.22;6240986;23;20016;-83
2023/01/13 01:37:04;;;;;;;12.90;2.47;;;;;;;8.21;100.00;67681.09;6238873;23;20012;-83
2023/01/13 01:39:30;;;;;;;15.52;3.00;;;;;;;8.21;100.00;67681.09;6237861;23;20428;-83
2023/01/13 01:44:52;;;;;;;16.42;3.97;;;;;;;8.11;100.00;67669.75;6238584;23;20101;-83
2023/01/13 01:47:19;;;;;;;14.80;3.22;;;;;;;8.11;100.00;67669.75;6238653;23;20075;-82
2023/01/13 01:49:45;;;;;;;15.40;3.88;;;;;;;8.10;100.00;67666.56;6237127;23;20028;-83
2023/01/13 01:52:15;;;;;;;9.27;2.90;;;;;;;8.08;100.00;67663.72;6240170;23;20363;-83
2023/01/13 01:54:46;;;;;;;14.52;2.97;;;;;;;8.02;100.00;67665.44;6238691;23;20074;-82
2023/01/13 01:57:17;;;;;;;12.55;3.17;;;;;;;8.00;100.00;67657.91;6212893;23;20016;-82
2023/01/13 01:59:42;;;;;;;15.10;2.95;;;;;;;;;;6212157;23;20039;-83
2023/01/13 02:02:08;;;;;;;9.90;3.15;;;;;;;7.96;100.00;67653.34;6213860;23;20016;-83
2023/01/13 02:04:39;;;;;;;16.85;3.75;;;;;;;7.94;100.00;67647.88;6238119;22;20023;-83
2023/01/13 02:07:05;;;;;;;12.50;2.70;;;;;;;7.91;100.00;67653.56;6238694;22;20020;-82
2023/01/13 02:09:32;;;;;;;23.15;4.05;;;;;;;7.89;100.00;67646.00;6211196;22;20339;-83
2023/01/13 02:14:43;;;;;;;15.63;3.10;;;;;;;7.87;100.00;67648.47;6239486;22;20397;-83
2023/01/13 02:17:11;;;;;;;17.67;4.03;;;;;;;;;;6214047;23;20012;-83
2023/01/13 02:19:55;;;;;;;14.82;2.85;;;;;;;7.84;100.00;67645.63;6238388;22;20016;-83
2023/01/13 02:22:48;;;;;;;16.65;3.30;;;;;;;7.81;100.00;67636.94;6238213;22;20069;-83
2023/01/13 02:25:19;;;;;;;15.70;3.85;;;;;;;;;;6238557;22;20099;-83
2023/01/13 02:28:03;;;;;;;20.15;3.90;;;;;;;;;;6238883;22;20517;-83
2023/01/13 02:33:39;;;;;;;20.63;3.70;;;;;;;7.85;100.00;67641.47;6238893;22;20019;-82
2023/01/13 02:36:31;;;;;;;13.18;2.60;;;;;;;7.82;100.00;67638.06;6239294;22;20024;-83
2023/01/13 02:38:59;;;;;;;16.40;3.97;;;;;;;;;;6216376;23;20409;-82
2023/01/13 02:44:50;;;;;;;20.30;3.65;;;;;;;7.76;100.00;67631.28;6238727;22;20027;-83
2023/01/13 02:47:25;;;;;;;18.02;4.28;;;;;;;7.74;100.00;67629.03;6239135;22;20016;-82
2023/01/13 02:50:00;;;;;;;12.07;2.92;;;;;;;;;;6239269;22;20047;-83
2023/01/13 02:52:38;;;;;;;13.88;2.63;;;;;;;;;;6239448;22;20016;-83
2023/01/13 02:55:09;;;;;;;21.38;3.97;;;;;;;;;;6212168;23;20019;-83
2023/01/13 02:57:36;;;;;;;14.85;2.92;;;;;;;7.76;100.00;67628.06;6237673;22;20032;-82
2023/01/13 03:00:06;;;;;;;22.48;4.03;;;;;;;7.77;100.00;67631.84;6212355;23;20059;-83
2023/01/13 03:02:31;;;;;;;16.95;3.50;;;;;;;7.73;100.00;67627.88;6236546;22;20020;-83
2023/01/13 03:04:58;;;;;;;24.70;3.67;;;;;;;7.74;100.00;67628.44;6239148;22;20030;-83
2023/01/13 03:07:30;;;;;;;17.25;4.05;;;;;;;;;;6237874;22;20038;-83
2023/01/13 03:10:02;;;;;;;21.58;3.97;;;;;;;7.71;100.00;67625.63;6239479;22;20361;-83
2023/01/13 03:12:49;;;;;;;16.05;3.72;;;;;;;7.67;100.00;67619.00;6211804;22;20493;-83
2023/01/13 03:15:42;;;;;;;11.50;2.25;;;;;;;7.65;100.00;67618.81;6213042;23;20453;-83
2023/01/13 03:18:12;;;;;;;17.08;3.75;;;;;;;;;;6190157;23;20052;-83
2023/01/13 03:20:48;;;;;;;23.05;3.83;;;;;;;7.61;100.00;67614.88;6237845;22;20020;-83
2023/01/13 03:23:21;;;;;;;19.70;3.53;;;;;;;7.64;100.00;67615.03;6238683;22;20023;-83
2023/01/13 03:25:52;;;;;;;17.13;4.13;;;;;;;;;;6241989;22;20016;-84
2023/01/13 03:28:28;;;;;;;16.52;2.67;;;;;;;7.60;100.00;67613.19;6237507;22;20123;-85
2023/01/13 03:31:00;;;;;;;18.92;3.42;;;;;;;7.59;100.00;67617.31;6211155;23;20042;-84
2023/01/13 03:33:28;;;;;;;21.63;3.10;;;;;;;;;;6211712;22;20547;-84
2023/01/13 03:35:57;;;;;;;23.27;3.58;;;;;;;7.55;100.00;67608.06;6236908;22;20031;-85
2023/01/13 03:38:31;;;;;;;17.58;4.18;;;;;;;7.55;100.00;67607.50;6238224;22;20542;-84
2023/01/13 03:41:00;;;;;;;26.13;4.35;;;;;;;7.55;100.00;67607.50;6238846;22;20062;-85
2023/01/13 03:46:24;;;;;;;;;;;;;;;;;;6238247;22;20078;-85
2023/01/13 03:48:51;;;;;;;19.45;4.22;;;;;;;;;;6237852;22;19919;-85
2023/01/13 03:51:18;;;;;;;21.42;4.18;;;;;;;;;;6238880;22;20008;-84
2023/01/13 03:53:55;;;;;;;20.25;3.97;;;;;;;7.45;100.00;67597.31;6237034;22;20353;-84
2023/01/13 03:56:28;;;;;;;20.77;4.70;;;;;;;7.46;100.00;67598.44;6237701;22;20631;-85
2023/01/13 03:58:53;;;;;;;17.90;3.25;;;;;;;;;;6211492;23;20016;-84
2023/01/13 04:01:40;;;;;;;21.27;4.68;;;;;;;7.51;100.00;67600.91;6238005;22;20397;-84
2023/01/13 04:04:10;;;;;;;25.88;3.65;;;;;;;7.54;100.00;67603.72;6237963;22;20062;-84
2023/01/13 04:06:47;;;;;;;21.95;3.65;;;;;;;;;;6236104;22;20044;-84
2023/01/13 04:09:28;;;;;;;22.20;3.72;;;;;;;;;;6238326;22;20027;-83
2023/01/13 04:11:56;;;;;;;22.75;3.90;;;;;;;;;;6215287;23;20016;-84
2023/01/13 04:14:24;;;;;;;21.20;4.35;;;;;;;7.55;100.00;67612.81;6210788;22;20099;-85
2023/01/13 04:16:50;;;;;;;20.42;3.65;;;;;;;7.55;100.00;67607.50;6237359;22;20020;-85
2023/01/13 04:19:15;;;;;;;18.52;4.22;;;;;;;7.53;100.00;67610.53;6237118;22;20407;-84
2023/01/13 04:21:40;;;;;;;25.10;4.43;;;;;;;7.53;100.00;67611.09;6237586;22;20012;-84
2023/01/13 04:24:07;;;;;;;17.17;2.78;;;;;;;;;;6237802;22;20404;-84
2023/01/13 04:26:32;;;;;;;19.00;3.97;;;;;;;;;;6236168;22;20027;-85
2023/01/13 04:28:57;;;;;;;22.95;4.43;;;;;;;7.54;100.00;67606.94;6237664;22;20231;-85
2023/01/13 04:31:23;;;;;;;18.38;3.08;;;;;;;7.57;100.00;67609.78;6238066;22;20040;-85
2023/01/13 04:33:48;;;;;;;17.25;3.15;;;;;;;7.54;100.00;67612.25;6211504;23;20016;-84
2023/01/13 04:36:14;;;;;;;17.38;4.25;;;;;;;;;;6210078;23;20016;-84
2023/01/13 04:38:39;;;;;;;17.55;3.35;;;;;;;;;;6236934;22;20469;-84
2023/01/13 04:41:05;;;;;;;15.45;3.70;;;;;;;7.56;100.00;67613.94;6237797;22;20020;-84
2023/01/13 04:43:30;;;;;;;18.75;3.63;;;;;;;7.56;100.00;67608.63;6239265;22;20012;-84
2023/01/13 04:45:55;;;;;;;15.45;3.47;;;;;;;7.55;100.00;67613.38;6239581;22;20024;-85
2023/01/13 04:48:21;;;;;;;20.02;3.72;;;;;;;7.56;100.00;67609.19;6213468;22;20381;-84
2023/01/13 04:50:46;;;;;;;20.42;2.88;;;;;;;;;;6239920;22;20402;-84
2023/01/13 04:53:11;;;;;;;20.83;3.90;;;;;;;7.55;100.00;67608.06;6240301;22;20339;-85
2023/01/13 04:55:37;;;;;;;13.05;2.10;;;;;;;7.53;100.00;67610.53;6212635;22;20071;-85
2023/01/13 04:58:05;;;;;;;21.50;4.10;;;;;;;7.54;100.00;67606.94;6240047;22;20581;-85
2023/01/13 05:00:30;;;;;;;15.30;4.30;;;;;;;;;;6212161;22;20020;-84
2023/01/13 05:02:56;;;;;;;19.23;2.83;;;;;;;;;;6240592;22;20019;-85
2023/01/13 05:05:21;;;;;;;20.27;3.67;;;;;;;;;;6238825;22;20024;-85
2023/01/13 05:07:46;;;;;;;17.30;3.00;;;;;;;7.57;100.00;67615.06;6240714;22;20024;-84
2023/01/13 05:10:12;;;;;;;14.80;3.05;;;;;;;;;;6213511;23;20027;-85
2023/01/13 05:18:05;;;;;;;11.02;3.53;;;;;;;;;;6241649;22;20023;-85
2023/01/13 05:20:30;;;;;;;12.98;2.72;;;;;;;7.57;100.00;67609.78;6212873;22;20357;-85
2023/01/13 05:25:42;;;;;;;13.50;2.78;;;;;;;7.55;100.00;67608.06;6239014;22;20050;-83
2023/01/13 05:28:08;;;;;;;11.67;2.90;;;;;;;7.54;100.00;67603.72;6241966;22;20091;-85
2023/01/13 05:30:41;;;;;;;9.43;1.30;;;;;;;7.53;100.00;67605.25;6240370;22;20020;-84
2023/01/13 05:33:07;;;;;;;12.32;2.80;;;;;;;7.52;100.00;67604.13;6240605;22;20024;-84
2023/01/13 05:35:32;;;;;;;11.68;2.55;;;;;;;7.49;100.00;67600.72;6236019;22;20493;-83
2023/01/13 05:37:58;;;;;;;12.07;2.30;;;;;;;7.49;100.00;67598.63;6235450;22;20023;-82
2023/01/13 05:43:24;;;;;;;7.70;1.73;;;;;;;7.52;100.00;67609.41;6240844;22;20027;-81
2023/01/13 05:45:55;;;;;;;15.20;2.70;;;;;;;7.53;100.00;67605.25;6212616;23;20016;-82
2023/01/13 05:48:22;;;;;;;12.52;2.03;;;;;;;7.52;100.00;67601.47;6238656;22;20454;-81
2023/01/13 05:50:48;;;;;;;11.70;2.47;;;;;;;7.54;100.00;67606.94;6239971;22;20023;-81
2023/01/13 05:53:14;;;;;;;8.07;1.33;;;;;;;7.55;100.00;67608.06;6238328;22;20023;-80
2023/01/13 05:55:41;;;;;;;9.20;1.10;;;;;;;7.54;100.00;67606.38;6233967;22;20018;-80
2023/01/13 05:58:08;;;;;;;9.07;1.70;;;;;;;7.52;100.00;67604.13;6208215;23;20020;-81
2023/01/13 06:00:34;;;;;;;8.52;1.50;;;;;;;7.47;100.00;67599.56;6240365;22;20039;-82
2023/01/13 06:03:00;;;;;;;8.80;2.20;;;;;;;7.49;100.00;67600.72;6239359;22;20106;-82
2023/01/13 06:05:25;;;;;;;11.52;1.95;;;;;;;7.46;100.00;67597.88;6238892;22;20024;-83
2023/01/13 06:07:50;;;;;;;10.18;1.98;;;;;;;7.42;100.00;67593.34;6240196;22;20016;-83
2023/01/13 06:10:16;;;;;;;12.68;2.05;;;;;;;7.38;100.00;67594.69;6239364;22;20020;-83
2023/01/13 06:12:42;;;;;;;10.50;2.17;;;;;;;7.38;100.00;67588.84;6237773;22;20020;-82
2023/01/13 06:15:07;;;;;;;12.20;1.95;;;;;;;;;;6240073;22;20008;-82
2023/01/13 06:17:33;;;;;;;9.15;2.35;;;;;;;7.33;100.00;67583.72;6210970;22;20091;-83
2023/01/13 06:19:58;;;;;;;8.75;2.78;;;;;;;;;;6211914;23;20784;-82
2023/01/13 06:22:27;;;;;;;9.25;1.40;;;;;;;7.32;100.00;67582.03;6241154;22;20026;-82
2023/01/13 06:24:53;;;;;;;12.55;1.90;;;;;;;;;;6239933;22;20012;-83
2023/01/13 06:27:18;;;;;;;7.57;2.65;;;;;;;;;;6240438;22;20092;-82
2023/01/13 06:29:44;;;;;;;10.68;2.60;;;;;;;7.35;100.00;67591.31;6239316;22;20455;-83
2023/01/13 06:32:33;;;;;;;12.95;2.38;;;;;;;7.36;100.00;67587.13;6214390;23;20063;-82
2023/01/13 06:35:04;;;;;;;10.43;2.03;;;;;;;7.35;100.00;67586.00;6216906;23;20047;-82
2023/01/13 06:37:30;;;;;;;10.02;2.38;;;;;;;;;;6241270;22;20016;-83
2023/01/13 06:39:59;;;;;;;8.57;2.22;;;;;;;7.36;100.00;67587.13;6215917;23;20024;-83
2023/01/13 06:45:15;;;;;;;16.67;3.55;;;;;;;7.40;100.00;67591.66;6242167;22;20023;-83
2023/01/13 06:47:41;;;;;;;11.55;2.75;;;;;;;7.43;100.00;67595.06;6240638;22;20012;-82
2023/01/13 06:50:07;;;;;;;11.43;2.33;;;;;;;7.45;100.00;67597.31;6242746;22;20016;-81
2023/01/13 06:52:32;;;;;;;9.32;3.05;;;;;;;;;;6242435;22;20020;-82
2023/01/13 06:54:57;;;;;;;11.88;2.30;;;;;;;;;;6240290;22;20027;-82
2023/01/13 06:57:23;;;;;;;17.23;3.53;;;;;;;;;;6240883;22;20016;-82
2023/01/13 06:59:48;;;;;;;14.15;2.58;;;;;;;7.49;100.00;67606.03;6216067;23;20180;-82
2023/01/13 07:02:13;;;;;;;10.57;2.92;;;;;;;;;;6243450;22;20532;-82
2023/01/13 07:04:38;;;;;;;8.13;2.25;;;;;;;;;;6242952;22;20015;-83
2023/01/13 07:07:04;;;;;;;11.85;3.28;;;;;;;7.51;100.00;67611.50;6244381;22;20020;-83
2023/01/13 07:09:29;;;;;;;10.95;2.17;;;;;;;7.54;100.00;67606.94;6241008;22;20046;-81
2023/01/13 07:11:54;;;;;;;13.50;3.10;;;;;;;;;;6241599;22;20041;-84
2023/01/13 07:17:04;;;;;;;8.95;3.00;;;;;;;;;;6243173;22;20023;-81
2023/01/13 07:19:29;;;;;;;15.90;3.20;;;;;;;7.52;100.00;67604.13;6238685;22;20024;-82
2023/01/13 07:21:55;;;;;;;7.38;2.47;;;;;;;7.53;100.00;67611.09;6240473;22;20501;-83
2023/01/13 07:24:21;;;;;;;17.02;3.08;;;;;;;7.54;100.00;67606.38;6237249;22;20027;-82
2023/01/13 07:26:46;;;;;;;12.77;2.65;;;;;;;7.50;100.00;67601.84;6213593;23;20203;-82
2023/01/13 07:29:12;;;;;;;11.23;3.08;;;;;;;;;;6239679;22;20031;-82
2023/01/13 07:31:40;;;;;;;9.43;2.58;;;;;;;;;;6241061;23;20039;-84
2023/01/13 07:34:06;;;;;;;16.67;3.43;;;;;;;7.45;100.00;67594.69;6246100;23;20012;-83
2023/01/13 07:36:31;;;;;;;21.58;4.03;;;;;;;;;;6244136;23;20247;-84
2023/01/13 07:38:56;;;;;;;10.88;2.55;;;;;;;7.43;100.00;67591.84;6245659;22;20095;-82
2023/01/13 07:44:06;;;;;;;11.82;2.70;;;;;;;;;;6243984;22;20046;-83
2023/01/13 07:46:32;;;;;;;16.25;3.13;;;;;;;7.38;100.00;67588.84;6242659;22;20486;-83
2023/01/13 07:48:57;;;;;;;12.85;2.33;;;;;;;;;;6216169;23;20020;-82
2023/01/13 07:51:23;;;;;;;13.82;4.07;;;;;;;7.39;100.00;67589.97;6215347;22;20350;-84
2023/01/13 07:53:48;;;;;;;15.32;3.53;;;;;;;7.38;100.00;67588.84;6243494;22;20094;-82
2023/01/13 07:56:14;;;;;;;7.55;2.15;;;;;;;;;;6242926;22;20020;-83
2023/01/13 07:58:40;;;;;;;11.35;3.05;;;;;;;7.38;100.00;67594.69;6215959;22;20051;-82
2023/01/13 08:01:07;;;;;;;12.35;2.47;;;;;;;7.38;100.00;67589.41;6242926;22;20557;-83
2023/01/13 08:03:32;;;;;;;18.35;2.55;;;;;;;;;;6243983;22;20012;-82
2023/01/13 08:06:00;;;;;;;22.70;2.67;;;;;;;7.36;100.00;67586.56;6244653;22;20358;-82
2023/01/13 08:08:25;;;;;;;11.68;2.20;;;;;;;;;;6246362;22;20016;-82
2023/01/13 08:10:50;;;;;;;13.95;2.60;;;;;;;7.36;100.00;67587.13;6250661;22;20039;-83
2023/01/13 08:13:18;;;;;;;14.25;2.35;;;;;;;7.37;100.00;67593.56;6246435;22;20012;-83
2023/01/13 08:15:45;;;;;;;13.15;3.03;;;;;;;7.37;100.00;67587.72;6256443;22;20020;-82
2023/01/13 08:18:11;;;;;;;15.15;2.95;;;;;;;;;;6229142;23;20437;-82
2023/01/13 08:20:37;;;;;;;6.20;2.20;;;;;;;7.36;100.00;67586.56;6240329;22;20040;-82
2023/01/13 08:23:02;;;;;;;11.23;2.17;;;;;;;7.35;100.00;67582.78;6240557;22;20008;-82
2023/01/13 08:25:28;;;;;;;13.50;2.67;;;;;;;;;;6239375;22;20020;-82
2023/01/13 08:27:54;;;;;;;9.85;2.40;;;;;;;7.33;100.00;67583.72;6241881;22;20024;-82
2023/01/13 08:30:20;;;;;;;12.88;3.00;;;;;;;7.33;100.00;67583.72;6241078;22;20543;-82
2023/01/13 08:32:47;;;;;;;17.27;2.58;;;;;;;7.31;100.00;67581.47;6240027;22;20070;-81
2023/01/13 08:35:13;;;;;;;12.50;2.75;;;;;;;;;;6240775;22;20023;-82
2023/01/13 08:37:39;;;;;;;12.82;2.58;;;;;;;7.32;100.00;67582.59;6241613;22;20438;-82
2023/01/13 08:40:05;;;;;;;14.73;3.25;;;;;;;;;;6241531;22;20012;-82
2023/01/13 08:42:30;;;;;;;15.00;3.60;;;;;;;7.35;100.00;67591.31;6241332;22;20012;-82
2023/01/13 08:44:56;;;;;;;13.85;3.53;;;;;;;7.37;100.00;67593.56;6240505;22;20016;-83
2023/01/13 08:47:22;;;;;;;12.57;2.35;;;;;;;7.37;100.00;67588.28;6240093;22;20354;-83
2023/01/13 08:49:48;;;;;;;11.00;2.78;;;;;;;7.38;100.00;67599.44;6239046;22;20016;-82
2023/01/13 08:52:13;;;;;;;12.65;2.55;;;;;;;7.37;100.00;67593.56;6215022;23;20008;-83
2023/01/13 08:54:39;;;;;;;16.52;3.35;;;;;;;7.40;100.00;67591.66;6239946;22;20016;-82
2023/01/13 08:57:05;;;;;;;10.57;2.53;;;;;;;7.40;100.00;67596.97;6239448;22;20012;-82
2023/01/13 08:59:31;;;;;;;18.17;3.17;;;;;;;;;;6239271;22;20520;-82
2023/01/13 09:01:56;;;;;;;14.20;3.35;;;;;;;;;;6240173;22;20016;-83
2023/01/13 09:04:26;;;;;;;10.80;2.63;;;;;;;7.43;100.00;67600.34;6213232;22;20377;-82
2023/01/13 09:06:52;;;;;;;12.80;2.80;;;;;;;7.45;100.00;67596.75;6237963;22;20012;-83
2023/01/13 09:09:17;;;;;;;15.75;3.05;;;;;;;7.43;100.00;67600.34;6212581;23;20019;-82
2023/01/13 09:14:31;;;;;;;15.35;3.45;;;;;;;;;;6238999;22;20353;-82
2023/01/13 09:16:57;;;;;;;16.52;2.60;;;;;;;7.46;100.00;67598.44;6237027;22;20138;-82
2023/01/13 09:19:22;;;;;;;16.90;2.72;;;;;;;7.50;100.00;67607.16;6239915;22;20013;-83
2023/01/13 09:21:48;;;;;;;14.30;1.98;;;;;;;7.49;100.00;67600.72;6241525;22;20019;-83
2023/01/13 09:24:13;;;;;;;14.65;3.30;;;;;;;7.53;100.00;67605.81;6212574;23;20039;-82
2023/01/13 09:26:39;;;;;;;19.58;3.17;;;;;;;7.54;100.00;67611.66;6236561;22;20042;-83
2023/01/13 09:29:04;;;;;;;11.85;2.60;;;;;;;7.55;100.00;67608.06;6240025;22;20081;-82
2023/01/13 09:31:33;;;;;;;16.15;2.85;;;;;;;;;;6239952;22;20361;-82
2023/01/13 09:36:42;;;;;;;18.88;2.92;;;;;;;;;;6238185;22;20019;-82
2023/01/13 09:39:08;;;;;;;11.68;2.38;;;;;;;7.56;100.00;67608.63;6238412;22;20016;-82
2023/01/13 09:44:25;;;;;;;17.35;2.40;;;;;;;7.58;100.00;67608.25;6238946;22;20031;-81
2023/01/13 09:46:59;;;;;;;10.13;2.72;;;;;;;7.59;100.00;67617.88;6237143;22;20023;-82
2023/01/13 09:49:34;;;;;;;19.77;3.35;;;;;;;7.58;100.00;67611.47;6238261;22;20047;-82
2023/01/13 09:52:23;;;;;;;12.35;2.50;;;;;;;7.54;100.00;67606.38;6209583;23;20355;-82
2023/01/13 09:55:01;;;;;;;;;;;;;;;7.51;100.00;67608.84;6237936;22;20020;-82
2023/01/13 09:57:36;;;;;;;10.77;2.50;;;;;;;7.38;100.00;67588.84;6237268;22;19916;-81
2023/01/13 10:00:09;;;;;;;10.68;2.45;;;;;;;7.40;100.00;67596.97;6237942;22;20012;-82
2023/01/13 10:03:18;;;;;;;20.60;3.60;;;;;;;7.42;100.00;67593.94;6237675;22;20598;-83
2023/01/13 10:05:46;;;;;;;18.65;4.63;;;;;;;;;;6114463;23;20037;-82
2023/01/13 10:08:14;;;;;;;14.20;2.92;;;;;;;;;;6115874;23;20092;-82
2023/01/13 10:10:41;;;;;;;15.30;3.45;;;;;;;;;;6177908;22;20031;-82
2023/01/13 10:13:28;;;;;;;13.38;3.60;;;;;;;7.51;100.00;67613.56;6238669;22;20401;-82
2023/01/13 10:16:02;;;;;;;17.17;3.33;;;;;;;7.54;100.00;67603.72;6237311;22;20378;-82
2023/01/13 10:19:02;;;;;;;18.40;3.60;;;;;;;7.61;100.00;67611.66;6211911;22;20071;-82
2023/01/13 10:21:46;;;;;;;14.05;3.45;;;;;;;7.67;100.00;67621.09;6238845;22;20026;-82
2023/01/13 10:24:36;;;;;;;17.48;3.55;;;;;;;7.67;100.00;67626.94;6217156;23;20047;-82
2023/01/13 10:27:15;;;;;;;18.92;3.05;;;;;;;;;;6214114;23;20070;-82
2023/01/13 10:29:40;;;;;;;12.55;3.22;;;;;;;7.64;100.00;67617.69;6238532;22;20016;-83
2023/01/13 10:32:06;;;;;;;16.65;2.92;;;;;;;7.65;100.00;67618.81;6238910;22;20020;-82
2023/01/13 10:34:46;;;;;;;21.88;3.28;;;;;;;7.68;100.00;67622.78;6212786;22;20436;-82
2023/01/13 10:37:19;;;;;;;22.27;4.43;;;;;;;;;;6242502;22;20083;-82
2023/01/13 10:39:45;;;;;;;14.25;3.28;;;;;;;;;;6238100;22;20279;-83
2023/01/13 10:42:17;;;;;;;12.43;3.20;;;;;;;;;;6240712;22;20020;-83
2023/01/13 10:44:54;;;;;;;11.60;2.58;;;;;;;;;;6238387;22;20035;-82
2023/01/13 10:47:24;;;;;;;16.95;3.58;;;;;;;;;;6238448;22;20039;-83
2023/01/13 10:50:07;;;;;;;16.25;3.30;;;;;;;7.54;100.00;67606.38;6238992;22;20050;-81
2023/01/13 10:52:41;;;;;;;13.80;2.85;;;;;;;7.53;100.00;67605.25;6237055;22;20012;-82
2023/01/13 10:55:40;;;;;;;15.02;3.65;;;;;;;;;;6239396;22;20632;-82
2023/01/13 10:58:11;;;;;;;12.88;2.70;;;;;;;7.40;100.00;67591.66;6129792;23;20024;-81
2023/01/13 11:00:37;;;;;;;16.60;3.33;;;;;;;7.38;100.00;67588.84;6239752;22;20107;-83
2023/01/13 11:03:21;;;;;;;14.68;3.50;;;;;;;7.31;100.00;67586.78;6238122;22;20087;-82
2023/01/13 11:05:58;;;;;;;16.73;2.60;;;;;;;7.29;100.00;67578.66;6238361;22;20598;-82
2023/01/13 11:08:40;;;;;;;13.80;3.05;;;;;;;7.21;100.00;67570.16;6238784;22;20016;-83
2023/01/13 11:11:22;;;;;;;16.58;2.88;;;;;;;;;;6219504;23;20036;-80
2023/01/13 11:16:38;;;;;;;17.58;3.70;;;;;;;;;;6237989;22;20522;-80
2023/01/13 11:19:12;;;;;;;13.57;3.05;;;;;;;7.01;100.00;67548.66;6238636;22;20023;-80
2023/01/13 11:21:42;;;;;;;13.82;3.17;;;;;;;7.06;100.00;67553.19;6237645;22;20019;-81
2023/01/13 11:24:25;;;;;;;17.58;4.07;;;;;;;7.04;100.00;67556.22;6239383;22;20019;-81
2023/01/13 11:27:09;;;;;;;13.77;3.70;;;;;;;;;;6209864;22;20454;-80
2023/01/13 11:29:40;;;;;;;15.73;2.88;;;;;;;;;;6237813;22;20462;-81
2023/01/13 11:32:18;;;;;;;13.40;3.47;;;;;;;6.99;100.00;67545.81;6238520;22;20095;-81
2023/01/13 11:34:45;;;;;;;8.13;3.53;;;;;;;;;;6211746;22;20366;-82
2023/01/13 11:37:18;;;;;;;14.43;2.67;;;;;;;;;;6239313;22;20343;-81
2023/01/13 11:39:58;;;;;;;11.65;3.55;;;;;;;;;;6211153;22;20038;-81
2023/01/13 11:42:42;;;;;;;14.55;3.63;;;;;;;7.19;100.00;67567.88;6238965;22;20019;-82
2023/01/13 11:45:15;;;;;;;17.67;4.13;;;;;;;;;;6215155;23;20354;-81
2023/01/13 11:47:42;;;;;;;12.18;3.30;;;;;;;7.27;100.00;67576.94;6239891;22;20070;-81
2023/01/13 11:50:38;;;;;;;10.15;3.63;;;;;;;7.32;100.00;67587.91;6244187;22;20502;-81
2023/01/13 11:53:11;;;;;;;13.10;3.35;;;;;;;7.34;100.00;67584.88;6218485;23;20093;-81
2023/01/13 11:55:36;;;;;;;10.80;2.75;;;;;;;;;;6235796;22;20016;-83
2023/01/13 11:58:37;;;;;;;10.50;2.37;;;;;;;7.41;100.00;67592.22;6238936;22;20046;-84
2023/01/13 12:01:13;;;;;;;14.73;3.03;;;;;;;7.41;100.00;67592.78;6226432;22;20235;-82
2023/01/13 12:03:38;;;;;;;15.30;3.10;;;;;;;;;;6243053;22;20119;-83
2023/01/13 12:06:29;;;;;;;12.23;2.83;;;;;;;7.45;100.00;67602.63;6239021;22;20082;-82
2023/01/13 12:09:20;;;;;;;14.80;2.35;;;;;;;;;;6237547;22;20692;-83
2023/01/13 12:12:19;;;;;;;14.75;2.58;;;;;;;;;;6210509;22;20051;-83
2023/01/13 12:15:13;;;;;;;9.13;2.22;;;;;;;7.32;100.00;67582.59;6238022;22;20102;-83
2023/01/13 12:18:13;;;;;;;14.02;3.53;;;;;;;7.19;100.00;67573.19;6211895;22;20027;-84
2023/01/13 12:20:58;;;;;;;14.75;2.97;;;;;;;7.09;100.00;67556.59;6238786;22;20095;-83
2023/01/13 12:23:45;;;;;;;16.92;3.38;;;;;;;6.93;100.00;67539.63;6240527;22;20527;-84
2023/01/13 12:26:14;;;;;;;14.63;2.75;;;;;;;;;;6218479;23;20024;-83
2023/01/13 12:28:48;;;;;;;10.60;2.27;;;;;;;6.85;100.00;67530.56;6240260;22;20024;-82
2023/01/13 12:31:17;;;;;;;14.32;4.85;;;;;;;;;;6213351;23;20028;-82
2023/01/13 12:34:03;;;;;;;15.20;3.30;;;;;;;;;;6240899;22;20012;-83
2023/01/13 12:36:48;;;;;;;16.13;2.97;;;;;;;;;;6242355;22;20091;-83
2023/01/13 12:39:17;;;;;;;16.65;4.05;;;;;;;;;;6239541;22;20062;-83
2023/01/13 12:45:06;;;;;;;12.65;3.03;;;;;;;;;;6239308;22;20092;-83
2023/01/13 12:47:37;;;;;;;15.68;2.78;;;;;;;7.07;100.00;67554.31;6239803;22;20012;-83
2023/01/13 12:50:20;;;;;;;16.63;3.72;;;;;;;7.07;100.00;67554.31;6236083;22;20017;-82
2023/01/13 12:52:45;;;;;;;18.20;3.10;;;;;;;;;;6239090;22;20020;-84
2023/01/13 12:55:14;;;;;;;13.00;2.72;;;;;;;7.17;100.00;67565.66;6240210;22;20015;-83
2023/01/13 12:57:56;;;;;;;13.18;2.70;;;;;;;7.19;100.00;67563.19;6236961;22;20403;-83
2023/01/13 13:00:22;;;;;;;11.25;3.00;;;;;;;7.21;100.00;67570.16;6238180;22;20016;-82
2023/01/13 13:03:25;;;;;;;13.00;3.15;;;;;;;7.27;100.00;67576.94;6237122;22;20615;-83
2023/01/13 13:06:15;;;;;;;8.40;1.90;;;;;;;7.25;100.00;67574.69;6175750;22;20027;-83
2023/01/13 13:08:43;;;;;;;17.58;2.90;;;;;;;;;;6240644;22;20023;-82
2023/01/13 13:14:34;;;;;;;17.88;3.42;;;;;;;7.20;100.00;67566.38;6217125;23;20047;-81
2023/01/13 13:16:59;;;;;;;17.42;3.55;;;;;;;;;;6236845;22;20027;-83
2023/01/13 13:19:25;;;;;;;18.15;3.58;;;;;;;7.14;100.00;67562.25;6238837;22;20024;-83
2023/01/13 13:22:09;;;;;;;18.77;3.88;;;;;;;;;;6240267;22;20095;-83
2023/01/13 13:24:34;;;;;;;17.30;2.58;;;;;;;7.11;100.00;67564.72;6241058;22;20016;-83
2023/01/13 13:27:21;;;;;;;15.60;2.95;;;;;;;;;;6239567;22;20039;-83